createdAt,value
2018-01-20T00:00:32.990Z,16.90
2018-01-20T00:03:01.686Z,9.77
2018-01-20T00:05:30.393Z,6.93
2018-01-20T00:07:59.091Z,5.75
2018-01-20T00:10:38.954Z,8.32
2018-01-20T00:13:07.650Z,6.40
2018-01-20T00:15:36.325Z,5.72
2018-01-20T00:18:05.023Z,7.68
2018-01-20T00:20:33.741Z,5.25
2018-01-20T00:23:02.415Z,5.22
2018-01-20T00:25:31.120Z,5.70
2018-01-20T00:27:59.789Z,4.25
2018-01-20T00:30:29.261Z,5.00
2018-01-20T00:32:57.961Z,5.10
2018-01-20T00:35:26.637Z,5.00
2018-01-20T00:37:55.324Z,5.53
2018-01-20T00:40:24.043Z,4.55
2018-01-20T00:42:53.519Z,5.05
2018-01-20T00:45:22.207Z,4.45
2018-01-20T00:47:50.933Z,5.15
2018-01-20T00:50:20.394Z,4.70
2018-01-20T00:52:49.086Z,4.07
2018-01-20T00:55:17.766Z,4.25
2018-01-20T00:57:46.428Z,3.35
2018-01-20T01:00:15.080Z,4.68
2018-01-20T01:02:44.549Z,4.40
2018-01-20T01:05:13.249Z,3.80
2018-01-20T01:07:42.705Z,4.53
2018-01-20T01:10:11.401Z,4.60
2018-01-20T01:12:40.086Z,3.20
2018-01-20T01:15:08.994Z,4.22
2018-01-20T01:17:37.690Z,3.65
2018-01-20T01:20:06.413Z,3.60
2018-01-20T01:22:35.920Z,3.70
2018-01-20T01:25:05.357Z,4.90
2018-01-20T01:27:34.072Z,4.65
2018-01-20T01:30:02.768Z,4.12
2018-01-20T01:32:31.458Z,4.10
2018-01-20T01:35:00.446Z,3.25
2018-01-20T01:37:29.130Z,3.45
2018-01-20T01:39:57.833Z,3.30
2018-01-20T01:42:26.539Z,3.62
2018-01-20T01:44:55.974Z,3.50
2018-01-20T01:47:24.639Z,4.00
2018-01-20T01:49:54.122Z,3.17
2018-01-20T01:52:22.890Z,3.30
2018-01-20T01:54:51.593Z,3.42
2018-01-20T01:57:20.284Z,3.55
2018-01-20T01:59:48.971Z,2.65
2018-01-20T02:02:17.677Z,3.45
2018-01-20T02:04:46.369Z,3.40
2018-01-20T02:07:15.845Z,2.80
2018-01-20T02:09:44.528Z,2.92
2018-01-20T02:12:13.197Z,3.28
2018-01-20T02:14:41.906Z,2.92
2018-01-20T02:17:10.669Z,3.78
2018-01-20T02:19:39.385Z,3.33
2018-01-20T02:22:08.068Z,3.60
2018-01-20T02:24:36.761Z,2.83
2018-01-20T02:27:05.463Z,2.22
2018-01-20T02:29:34.936Z,2.70
2018-01-20T02:32:03.633Z,2.60
2018-01-20T02:34:32.293Z,2.35
2018-01-20T02:37:00.646Z,2.80
2018-01-20T02:39:29.303Z,2.90
2018-01-20T02:41:57.962Z,2.47
2018-01-20T02:44:26.663Z,2.53
2018-01-20T02:46:55.338Z,2.95
2018-01-20T02:49:24.062Z,2.92
2018-01-20T02:51:53.513Z,3.05
2018-01-20T02:54:22.194Z,2.95
2018-01-20T02:56:50.897Z,3.05
2018-01-20T02:59:20.380Z,2.60
2018-01-20T03:01:49.093Z,2.62
2018-01-20T03:04:17.769Z,2.78
2018-01-20T03:06:46.503Z,2.60
2018-01-20T03:09:15.969Z,2.30
2018-01-20T03:11:44.641Z,2.25
2018-01-20T03:14:13.366Z,2.45
2018-01-20T03:16:42.039Z,2.92
2018-01-20T03:19:10.706Z,3.03
2018-01-20T03:21:39.454Z,1.83
2018-01-20T03:24:08.918Z,2.35
2018-01-20T03:26:37.610Z,2.15
2018-01-20T03:29:06.305Z,2.00
2018-01-20T03:31:34.969Z,1.70
2018-01-20T03:34:03.738Z,3.05
2018-01-20T03:36:33.201Z,2.30
2018-01-20T03:39:02.668Z,1.80
2018-01-20T03:41:31.452Z,2.28
2018-01-20T03:44:00.167Z,1.98
2018-01-20T03:46:28.842Z,1.90
2018-01-20T03:48:57.558Z,2.10
2018-01-20T03:51:26.246Z,3.05
2018-01-20T03:53:55.677Z,2.15
2018-01-20T03:56:24.416Z,2.22
2018-01-20T03:58:53.090Z,3.22
2018-01-20T04:01:21.790Z,2.67
2018-01-20T04:03:50.497Z,2.95
2018-01-20T04:06:19.946Z,2.42
2018-01-20T04:08:48.641Z,2.40
2018-01-20T04:11:17.326Z,2.37
2018-01-20T04:13:46.025Z,2.33
2018-01-20T04:16:14.720Z,2.20
2018-01-20T04:18:43.413Z,2.47
2018-01-20T04:21:12.123Z,2.28
2018-01-20T04:23:40.787Z,2.03
2018-01-20T04:26:09.449Z,2.12
2018-01-20T04:28:38.194Z,2.45
2018-01-20T04:31:07.637Z,2.35
2018-01-20T04:33:36.309Z,2.40
2018-01-20T04:36:05.013Z,2.45
2018-01-20T04:38:33.708Z,2.65
2018-01-20T04:41:02.390Z,2.25
2018-01-20T04:43:31.094Z,2.03
2018-01-20T04:45:59.772Z,1.65
2018-01-20T04:48:28.478Z,1.60
2018-01-20T04:50:57.185Z,1.90
2018-01-20T04:53:25.870Z,2.85
2018-01-20T04:55:54.349Z,1.77
2018-01-20T04:58:23.029Z,1.67
2018-01-20T05:00:51.699Z,2.35
2018-01-20T05:03:20.395Z,2.03
2018-01-20T05:05:49.130Z,2.40
2018-01-20T05:08:17.807Z,2.03
2018-01-20T05:10:46.478Z,2.25
2018-01-20T05:13:15.950Z,2.45
2018-01-20T05:15:44.615Z,2.00
2018-01-20T05:18:13.297Z,2.05
2018-01-20T05:20:42.173Z,2.55
2018-01-20T05:23:10.846Z,1.80
2018-01-20T05:25:39.522Z,2.50
2018-01-20T05:28:08.994Z,2.25
2018-01-20T05:30:37.675Z,2.45
2018-01-20T05:33:06.363Z,1.98
2018-01-20T05:35:35.090Z,2.40
2018-01-20T05:38:04.540Z,2.00
2018-01-20T05:40:33.233Z,1.90
2018-01-20T05:43:01.977Z,1.70
2018-01-20T05:45:30.817Z,2.10
2018-01-20T05:47:59.532Z,1.90
2018-01-20T05:50:28.242Z,1.95
2018-01-20T05:52:57.677Z,1.58
2018-01-20T05:55:26.402Z,2.17
2018-01-20T05:57:55.076Z,1.90
2018-01-20T06:00:23.749Z,1.87
2018-01-20T06:02:52.507Z,2.03
2018-01-20T06:05:21.189Z,2.30
2018-01-20T06:07:49.699Z,1.73
2018-01-20T06:10:18.410Z,1.80
2018-01-20T06:12:47.090Z,2.05
2018-01-20T06:15:15.766Z,2.00
2018-01-20T06:17:44.486Z,2.75
2018-01-20T06:20:13.189Z,2.50
2018-01-20T06:22:42.648Z,2.00
2018-01-20T06:25:11.375Z,1.60
2018-01-20T06:27:40.061Z,2.05
2018-01-20T06:30:08.744Z,1.70
2018-01-20T06:32:38.225Z,2.17
2018-01-20T06:35:06.936Z,2.22
2018-01-20T06:37:35.621Z,2.45
2018-01-20T06:40:04.338Z,4.15
2018-01-20T06:42:32.989Z,4.00
2018-01-20T06:45:01.661Z,4.30
2018-01-20T06:47:30.398Z,3.35
2018-01-20T06:49:59.853Z,3.60
2018-01-20T06:52:28.536Z,2.55
2018-01-20T06:54:57.221Z,1.92
2018-01-20T06:57:25.929Z,2.65
2018-01-20T06:59:54.607Z,2.37
2018-01-20T07:02:23.305Z,3.40
2018-01-20T07:04:51.988Z,3.55
2018-01-20T07:07:20.654Z,3.28
2018-01-20T07:09:49.378Z,3.15
2018-01-20T07:12:18.944Z,3.25
2018-01-20T07:14:47.704Z,2.55
2018-01-20T07:17:16.238Z,2.83
2018-01-20T07:19:44.937Z,3.25
2018-01-20T07:22:13.650Z,3.40
2018-01-20T07:24:43.121Z,2.45
2018-01-20T07:27:11.795Z,2.60
2018-01-20T07:29:40.493Z,4.00
2018-01-20T07:32:09.205Z,3.05
2018-01-20T07:34:37.891Z,3.30
2018-01-20T07:37:07.365Z,3.47
2018-01-20T07:39:36.086Z,2.50
2018-01-20T07:42:05.553Z,2.42
2018-01-20T07:44:34.249Z,2.53
2018-01-20T07:47:02.963Z,2.15
2018-01-20T07:49:32.515Z,2.60
2018-01-20T07:52:01.300Z,3.20
2018-01-20T07:54:30.013Z,2.70
2018-01-20T07:56:58.706Z,3.10
2018-01-20T07:59:27.390Z,2.40
2018-01-20T08:01:56.077Z,2.28
2018-01-20T08:04:24.786Z,3.42
2018-01-20T08:06:53.540Z,2.60
2018-01-20T08:09:22.287Z,3.58
2018-01-20T08:11:51.837Z,2.70
2018-01-20T08:14:20.363Z,3.20
2018-01-20T08:16:49.813Z,2.92
2018-01-20T08:19:18.525Z,2.53
2018-01-20T08:21:47.455Z,3.00
2018-01-20T08:24:16.894Z,2.75
2018-01-20T08:26:45.580Z,3.15
2018-01-20T08:29:14.309Z,3.42
2018-01-20T08:31:43.015Z,2.80
2018-01-20T08:34:11.695Z,3.20
2018-01-20T08:36:40.397Z,2.70
2018-01-20T08:39:09.829Z,2.83
2018-01-20T08:41:38.501Z,3.53
2018-01-20T08:44:07.186Z,2.60
2018-01-20T08:46:35.855Z,8.52
2018-01-20T08:49:05.591Z,2.62
2018-01-20T08:51:34.029Z,2.90
2018-01-20T08:54:02.441Z,3.00
2018-01-20T08:56:30.849Z,2.47
2018-01-20T08:58:59.261Z,3.03
2018-01-20T09:01:28.094Z,2.97
2018-01-20T09:03:56.559Z,2.93
2018-01-20T09:06:24.678Z,2.90
2018-01-20T09:08:53.864Z,2.73
2018-01-20T09:11:22.294Z,2.70
2018-01-20T09:13:50.761Z,3.37
2018-01-20T09:16:19.181Z,3.07
2018-01-20T09:18:47.583Z,2.90
2018-01-20T09:21:16.022Z,3.00
2018-01-20T09:23:44.445Z,2.67
2018-01-20T09:26:12.860Z,3.20
2018-01-20T09:28:42.066Z,2.17
2018-01-20T09:31:11.077Z,2.40
2018-01-20T09:33:39.494Z,3.37
2018-01-20T09:36:07.955Z,2.33
2018-01-20T09:38:36.373Z,1.80
2018-01-20T09:41:04.498Z,2.77
2018-01-20T09:43:32.942Z,2.67
2018-01-20T09:46:04.285Z,2.50
2018-01-20T09:48:33.513Z,2.03
2018-01-20T09:51:02.945Z,2.20
2018-01-20T09:53:31.357Z,3.20
2018-01-20T09:55:59.785Z,2.60
2018-01-20T09:58:28.217Z,3.00
2018-01-20T10:00:56.681Z,1.50
2018-01-20T10:03:25.140Z,1.87
2018-01-20T10:05:53.585Z,1.70
2018-01-20T10:08:22.767Z,2.40
2018-01-20T10:10:51.174Z,2.47
2018-01-20T10:13:20.421Z,2.40
2018-01-20T10:15:48.846Z,2.47
2018-01-20T10:18:18.061Z,1.97
2018-01-20T10:20:47.295Z,2.33
2018-01-20T10:23:15.781Z,3.20
2018-01-20T10:25:44.228Z,4.40
2018-01-20T10:28:13.021Z,2.53
2018-01-20T10:30:41.441Z,3.70
2018-01-20T10:33:11.681Z,3.53
2018-01-20T10:35:40.133Z,3.80
2018-01-20T10:38:08.590Z,4.13
2018-01-20T10:40:37.056Z,4.67
2018-01-20T10:43:06.312Z,4.77
2018-01-20T10:45:34.800Z,4.00
2018-01-20T10:48:03.246Z,4.83
2018-01-20T10:50:31.675Z,4.93
2018-01-20T10:53:00.160Z,4.67
2018-01-20T10:55:28.589Z,4.10
2018-01-20T10:57:57.025Z,3.60
2018-01-20T11:00:25.645Z,3.73
2018-01-20T11:02:54.833Z,4.60
2018-01-20T11:05:23.281Z,5.40
2018-01-20T11:07:51.766Z,4.93
2018-01-20T11:10:20.250Z,4.47
2018-01-20T11:12:48.339Z,4.77
2018-01-20T11:15:17.618Z,4.83
2018-01-20T11:17:46.094Z,5.37
2018-01-20T11:20:14.523Z,5.53
2018-01-20T11:22:43.699Z,5.83
2018-01-20T11:25:12.131Z,6.73
2018-01-20T11:27:40.582Z,6.10
2018-01-20T11:30:09.789Z,6.03
2018-01-20T11:32:38.217Z,5.13
2018-01-20T11:35:06.630Z,5.40
2018-01-20T11:37:35.846Z,4.40
2018-01-20T11:40:03.924Z,4.70
2018-01-20T11:42:32.351Z,3.53
2018-01-20T11:45:00.775Z,3.23
2018-01-20T11:47:29.941Z,2.70
2018-01-20T11:49:58.359Z,3.37
2018-01-20T11:52:26.813Z,3.70
2018-01-20T11:54:55.231Z,2.67
2018-01-20T11:57:23.662Z,2.80
2018-01-20T11:59:52.078Z,3.17
2018-01-20T12:02:21.113Z,3.00
2018-01-20T12:04:49.327Z,4.20
2018-01-20T12:07:17.818Z,4.07
2018-01-20T12:09:47.035Z,4.17
2018-01-20T12:12:15.564Z,5.20
2018-01-20T12:14:44.037Z,4.93
2018-01-20T12:17:12.459Z,3.70
2018-01-20T12:19:41.472Z,4.20
2018-01-20T12:22:09.778Z,4.10
2018-01-20T12:24:38.065Z,4.30
2018-01-20T12:27:07.090Z,3.93
2018-01-20T12:29:35.357Z,4.67
2018-01-20T12:32:03.569Z,4.27
2018-01-20T12:34:32.581Z,3.60
2018-01-20T12:37:00.926Z,3.10
2018-01-20T12:39:29.958Z,2.73
2018-01-20T12:41:58.225Z,2.93
2018-01-20T12:44:26.497Z,2.70
2018-01-20T12:46:54.732Z,2.50
2018-01-20T12:49:22.989Z,2.10
2018-01-20T12:51:51.266Z,3.37
2018-01-20T12:54:19.720Z,3.50
2018-01-20T12:56:48.138Z,2.60
2018-01-20T12:59:16.673Z,3.43
2018-01-20T13:01:45.102Z,2.87
2018-01-20T13:04:13.550Z,2.50
2018-01-20T13:06:42.192Z,3.27
2018-01-20T13:09:10.632Z,2.57
2018-01-20T13:11:39.082Z,2.87
2018-01-20T13:14:07.578Z,3.50
2018-01-20T13:16:36.031Z,3.83
2018-01-20T13:19:05.617Z,4.17
2018-01-20T13:21:34.298Z,4.90
2018-01-20T13:24:02.786Z,3.60
2018-01-20T13:26:31.226Z,3.60
2018-01-20T13:28:59.707Z,4.43
2018-01-20T13:31:28.190Z,4.90
2018-01-20T13:33:56.681Z,5.43
2018-01-20T13:36:25.162Z,5.10
2018-01-20T13:38:54.853Z,5.28
2018-01-20T13:41:23.591Z,4.65
2018-01-20T13:43:52.329Z,5.60
2018-01-20T13:46:21.131Z,5.85
2018-01-20T13:48:49.848Z,5.35
2018-01-20T13:51:18.578Z,5.75
2018-01-20T13:53:47.278Z,7.15
2018-01-20T13:56:16.040Z,5.70
2018-01-20T13:58:44.766Z,4.90
2018-01-20T14:01:14.270Z,5.65
2018-01-20T14:03:43.775Z,5.95
2018-01-20T14:06:12.494Z,6.03
2018-01-20T14:08:41.209Z,6.07
2018-01-20T14:11:09.944Z,5.28
2018-01-20T14:13:38.667Z,5.65
2018-01-20T14:16:07.362Z,6.40
2018-01-20T14:18:36.291Z,5.25
2018-01-20T14:21:04.999Z,7.20
2018-01-20T14:23:33.685Z,5.57
2018-01-20T14:26:02.408Z,6.35
2018-01-20T14:28:31.133Z,7.43
2018-01-20T14:31:00.133Z,7.12
2018-01-20T14:33:28.888Z,6.40
2018-01-20T14:35:57.655Z,7.22
2018-01-20T14:38:27.114Z,5.60
2018-01-20T14:40:55.632Z,5.68
2018-01-20T14:43:24.410Z,5.72
2018-01-20T14:45:53.117Z,6.37
2018-01-20T14:48:22.570Z,12.80
2018-01-20T14:50:51.285Z,10.32
2018-01-20T14:53:19.977Z,8.60
2018-01-20T14:55:48.689Z,6.82
2018-01-20T14:58:17.442Z,6.25
2018-01-20T15:00:46.140Z,6.60
2018-01-20T15:03:14.677Z,6.32
2018-01-20T15:05:43.398Z,6.10
2018-01-20T15:08:12.099Z,6.57
2018-01-20T15:10:40.824Z,6.93
2018-01-20T15:13:09.555Z,6.78
2018-01-20T15:15:38.251Z,6.07
2018-01-20T15:18:06.606Z,6.57
2018-01-20T15:20:35.507Z,5.70
2018-01-20T15:23:04.220Z,6.35
2018-01-20T15:25:32.998Z,11.05
2018-01-20T15:28:01.699Z,8.10
2018-01-20T15:30:30.405Z,7.68
2018-01-20T15:32:59.876Z,5.50
2018-01-20T15:35:28.561Z,6.43
2018-01-20T15:37:57.252Z,6.43
2018-01-20T15:40:25.955Z,8.68
2018-01-20T15:42:54.634Z,6.68
2018-01-20T15:45:23.310Z,8.00
2018-01-20T15:47:52.014Z,7.80
2018-01-20T15:50:20.727Z,9.18
2018-01-20T15:52:49.411Z,12.70
2018-01-20T15:55:18.109Z,14.87
2018-01-20T15:57:47.222Z,16.75
2018-01-20T16:00:15.952Z,15.27
2018-01-20T16:02:44.650Z,11.65
2018-01-20T16:05:14.237Z,12.15
2018-01-20T16:07:42.942Z,11.25
2018-01-20T16:10:11.662Z,9.13
2018-01-20T16:12:40.847Z,7.75
2018-01-20T16:15:10.302Z,7.40
2018-01-20T16:17:39.001Z,9.32
2018-01-20T16:20:07.702Z,10.23
2018-01-20T16:22:36.381Z,20.33
2018-01-20T16:25:05.149Z,17.58
2018-01-20T16:27:33.873Z,18.90
2018-01-20T16:30:02.560Z,19.35
2018-01-20T16:32:31.292Z,27.48
2018-01-20T16:34:59.973Z,32.00
2018-01-20T16:37:28.640Z,28.12
2018-01-20T16:39:58.330Z,26.35
2018-01-20T16:42:27.009Z,16.67
2018-01-20T16:44:55.685Z,11.90
2018-01-20T16:47:24.417Z,9.75
2018-01-20T16:49:53.114Z,13.18
2018-01-20T16:52:21.806Z,9.82
2018-01-20T16:54:50.549Z,11.77
2018-01-20T16:57:19.249Z,12.30
2018-01-20T16:59:47.933Z,13.88
2018-01-20T17:02:16.659Z,18.50
2018-01-20T17:04:45.349Z,18.45
2018-01-20T17:07:14.029Z,16.85
2018-01-20T17:09:42.741Z,18.27
2018-01-20T17:12:11.430Z,15.32
2018-01-20T17:14:40.116Z,13.18
2018-01-20T17:17:08.856Z,11.50
2018-01-20T17:19:37.566Z,13.32
2018-01-20T17:22:06.266Z,11.65
2018-01-20T17:24:34.961Z,10.75
2018-01-20T17:27:03.694Z,9.15
2018-01-20T17:29:32.369Z,9.20
2018-01-20T17:32:02.202Z,8.38
2018-01-20T17:34:31.667Z,7.80
2018-01-20T17:37:00.392Z,8.65
2018-01-20T17:39:29.077Z,9.52
2018-01-20T17:41:57.756Z,9.80
2018-01-20T17:44:26.529Z,9.45
2018-01-20T17:46:56.833Z,9.25
2018-01-20T17:49:25.545Z,7.60
2018-01-20T17:51:54.282Z,9.18
2018-01-20T17:54:22.766Z,8.50
2018-01-20T17:56:51.420Z,8.02
2018-01-20T17:59:20.115Z,8.88
2018-01-20T18:01:48.607Z,11.00
2018-01-20T18:04:18.789Z,11.57
2018-01-20T18:06:47.502Z,10.40
2018-01-20T18:09:16.189Z,11.45
2018-01-20T18:11:44.887Z,10.20
2018-01-20T18:14:13.582Z,11.30
2018-01-20T18:16:43.038Z,11.80
2018-01-20T18:19:11.753Z,10.65
2018-01-20T18:21:40.259Z,12.07
2018-01-20T18:24:08.990Z,12.50
2018-01-20T18:26:37.864Z,13.48
2018-01-20T18:29:06.554Z,10.95
2018-01-20T18:31:35.241Z,10.18
2018-01-20T18:34:03.634Z,10.70
2018-01-20T18:36:32.323Z,10.88
2018-01-20T18:39:01.035Z,10.15
2018-01-20T18:41:29.757Z,11.80
2018-01-20T18:43:58.622Z,12.32
2018-01-20T18:46:27.333Z,9.98
2018-01-20T18:48:56.018Z,9.65
2018-01-20T18:51:24.714Z,11.45
2018-01-20T18:53:53.407Z,13.45
2018-01-20T18:56:22.080Z,10.10
2018-01-20T18:58:50.754Z,11.32
2018-01-20T19:01:19.465Z,13.57
2018-01-20T19:03:48.150Z,12.27
2018-01-20T19:06:16.830Z,12.65
2018-01-20T19:08:46.289Z,12.70
2018-01-20T19:11:14.971Z,10.48
2018-01-20T19:13:43.757Z,9.43
2018-01-20T19:16:12.472Z,10.35
2018-01-20T19:18:41.158Z,9.82
2018-01-20T19:21:09.851Z,16.45
2018-01-20T19:23:38.733Z,13.80
2018-01-20T19:26:07.425Z,13.57
2018-01-20T19:28:36.173Z,14.13
2018-01-20T19:31:04.878Z,12.80
2018-01-20T19:33:33.582Z,12.57
2018-01-20T19:36:02.326Z,13.18
2018-01-20T19:38:31.018Z,11.93
2018-01-20T19:40:59.692Z,12.05
2018-01-20T19:43:28.382Z,11.95
2018-01-20T19:45:57.053Z,9.73
2018-01-20T19:48:25.825Z,10.52
2018-01-20T19:50:55.297Z,9.38
2018-01-20T19:53:24.013Z,10.45
2018-01-20T19:55:53.506Z,9.00
2018-01-20T19:58:22.201Z,8.25
2018-01-20T20:00:50.910Z,9.07
2018-01-20T20:03:19.821Z,11.23
2018-01-20T20:05:48.521Z,11.00
2018-01-20T20:08:17.206Z,12.37
2018-01-20T20:10:45.913Z,10.25
2018-01-20T20:13:14.610Z,9.30
2018-01-20T20:15:43.293Z,10.43
2018-01-20T20:18:12.011Z,11.43
2018-01-20T20:20:40.735Z,10.25
2018-01-20T20:23:09.421Z,9.20
2018-01-20T20:25:38.145Z,10.18
2018-01-20T20:28:06.842Z,9.20
2018-01-20T20:30:35.537Z,8.63
2018-01-20T20:33:04.238Z,8.75
2018-01-20T20:35:33.018Z,9.43
2018-01-20T20:38:01.781Z,9.45
2018-01-20T20:40:30.533Z,8.48
2018-01-20T20:43:00.193Z,9.30
2018-01-20T20:45:29.166Z,8.32
2018-01-20T20:47:57.934Z,8.02
2018-01-20T20:50:26.737Z,7.90
2018-01-20T20:52:55.409Z,8.95
2018-01-20T20:55:24.134Z,10.15
2018-01-20T20:57:52.834Z,9.82
2018-01-20T21:00:21.517Z,9.32
2018-01-20T21:02:50.353Z,12.55
2018-01-20T21:05:19.052Z,11.40
2018-01-20T21:07:47.807Z,12.93
2018-01-20T21:10:16.676Z,13.82
2018-01-20T21:12:45.374Z,13.13
2018-01-20T21:15:14.066Z,11.57
2018-01-20T21:17:42.753Z,10.45
2018-01-20T21:20:11.461Z,10.55
2018-01-20T21:22:40.345Z,11.40
2018-01-20T21:25:09.829Z,11.48
2018-01-20T21:27:38.551Z,12.37
2018-01-20T21:30:07.330Z,11.90
2018-01-20T21:32:36.817Z,10.63
2018-01-20T21:35:05.529Z,9.07
2018-01-20T21:37:35.077Z,9.57
2018-01-20T21:40:03.893Z,9.90
2018-01-20T21:42:32.620Z,10.88
2018-01-20T21:45:01.365Z,11.38
2018-01-20T21:47:30.083Z,11.18
2018-01-20T21:49:58.841Z,10.00
2018-01-20T21:52:27.589Z,9.77
2018-01-20T21:54:56.282Z,10.05
2018-01-20T21:57:25.005Z,8.82
2018-01-20T21:59:53.737Z,9.68
2018-01-20T22:02:23.199Z,10.05
2018-01-20T22:04:51.890Z,8.73
2018-01-20T22:07:20.577Z,8.98
2018-01-20T22:09:49.259Z,8.82
2018-01-20T22:12:17.943Z,9.63
2018-01-20T22:14:46.663Z,13.25
2018-01-20T22:17:15.369Z,15.13
2018-01-20T22:19:44.083Z,13.02
2018-01-20T22:22:12.966Z,13.00
2018-01-20T22:24:41.684Z,12.85
2018-01-20T22:27:10.373Z,11.00
2018-01-20T22:29:39.115Z,11.43
2018-01-20T22:32:07.855Z,11.60
2018-01-20T22:34:36.555Z,11.30
2018-01-20T22:37:05.297Z,11.52
2018-01-20T22:39:34.745Z,11.27
2018-01-20T22:42:03.434Z,10.55
2018-01-20T22:44:32.153Z,9.43
2018-01-20T22:47:00.850Z,10.50
2018-01-20T22:49:29.526Z,10.20
2018-01-20T22:51:58.241Z,9.20
2018-01-20T22:54:26.969Z,9.27
2018-01-20T22:56:55.679Z,9.75
2018-01-20T22:59:25.127Z,9.65
2018-01-20T23:01:53.865Z,8.73
2018-01-20T23:04:22.550Z,10.88
2018-01-20T23:06:51.297Z,9.43
2018-01-20T23:09:20.002Z,9.80
2018-01-20T23:11:48.689Z,8.98
2018-01-20T23:14:17.417Z,8.82
2018-01-20T23:16:46.124Z,9.93
2018-01-20T23:19:14.809Z,8.57
2018-01-20T23:21:43.572Z,9.48
2018-01-20T23:24:13.017Z,8.13
2018-01-20T23:26:41.890Z,8.80
2018-01-20T23:29:10.609Z,9.43
2018-01-20T23:31:39.309Z,8.68
2018-01-20T23:34:08.005Z,9.05
2018-01-20T23:36:36.707Z,9.32
2018-01-20T23:39:05.832Z,8.45
2018-01-20T23:41:34.538Z,8.45
2018-01-20T23:44:03.217Z,9.00
2018-01-20T23:46:32.670Z,9.02
2018-01-20T23:49:01.370Z,8.32
2018-01-20T23:51:30.057Z,9.32
2018-01-20T23:53:59.145Z,8.45
2018-01-20T23:56:32.448Z,10.20
2018-01-20T23:59:01.904Z,9.05
